Terminal Aerodrome Forecast
Issued by NWS Norman, OK

Home | Current Version | Previous Version | Text Only | Print | Product List | Glossary On
Versions: 1 2 3 4 5 6 7 8 9 10 11 12 13
000
FTUS44 KOUN 022320
TAFSPS
TAF
KSPS 022320Z 0300/0324 06015KT P6SM SCT017 BKN050 BKN150
     FM030300 09009KT 6SM -RA BKN035
     FM031000 06010KT 6SM -RA OVC025
     FM031200 06012KT 5SM -RA OVC007=

USA.gov is the U.S. government's official web portal to all federal, state and local government web resources and services.